sensor_id;sensor_type;location;lat;lon;timestamp;temperature;humidity
13992;DHT22;7070;53.586;9.692;2022-11-20T00:01:05;3.30;86.10
13992;DHT22;7070;53.586;9.692;2022-11-20T00:03:32;3.30;86.10
13992;DHT22;7070;53.586;9.692;2022-11-20T00:06:00;3.20;86.00
13992;DHT22;7070;53.586;9.692;2022-11-20T00:08:27;3.20;86.00
13992;DHT22;7070;53.586;9.692;2022-11-20T00:10:54;3.20;86.10
13992;DHT22;7070;53.586;9.692;2022-11-20T00:13:20;3.30;86.10
13992;DHT22;7070;53.586;9.692;2022-11-20T00:15:47;3.20;86.10
13992;DHT22;7070;53.586;9.692;2022-11-20T00:18:16;3.30;86.20
13992;DHT22;7070;53.586;9.692;2022-11-20T00:20:42;3.20;86.00
13992;DHT22;7070;53.586;9.692;2022-11-20T00:23:09;3.20;86.00
13992;DHT22;7070;53.586;9.692;2022-11-20T00:25:36;3.20;86.00
13992;DHT22;7070;53.586;9.692;2022-11-20T00:28:03;3.20;86.00
13992;DHT22;7070;53.586;9.692;2022-11-20T00:30:30;3.20;86.00
13992;DHT22;7070;53.586;9.692;2022-11-20T00:32:57;3.20;86.00
13992;DHT22;7070;53.586;9.692;2022-11-20T00:35:25;3.20;86.00
13992;DHT22;7070;53.586;9.692;2022-11-20T00:37:52;3.20;86.00
13992;DHT22;7070;53.586;9.692;2022-11-20T00:40:19;3.10;86.00
13992;DHT22;7070;53.586;9.692;2022-11-20T00:42:46;3.20;86.10
13992;DHT22;7070;53.586;9.692;2022-11-20T00:45:13;3.10;86.10
13992;DHT22;7070;53.586;9.692;2022-11-20T00:47:39;3.10;86.00
13992;DHT22;7070;53.586;9.692;2022-11-20T00:50:07;3.10;86.00
13992;DHT22;7070;53.586;9.692;2022-11-20T00:52:35;3.10;85.90
13992;DHT22;7070;53.586;9.692;2022-11-20T00:55:02;3.10;86.00
13992;DHT22;7070;53.586;9.692;2022-11-20T00:57:29;3.20;86.10
13992;DHT22;7070;53.586;9.692;2022-11-20T00:59:56;3.10;86.00
13992;DHT22;7070;53.586;9.692;2022-11-20T01:02:23;3.10;86.00
13992;DHT22;7070;53.586;9.692;2022-11-20T01:04:50;3.20;86.10
13992;DHT22;7070;53.586;9.692;2022-11-20T01:07:17;3.20;86.10
13992;DHT22;7070;53.586;9.692;2022-11-20T01:09:45;3.20;86.10
13992;DHT22;7070;53.586;9.692;2022-11-20T01:12:12;3.20;86.10
13992;DHT22;7070;53.586;9.692;2022-11-20T01:14:39;3.20;86.10
13992;DHT22;7070;53.586;9.692;2022-11-20T01:17:05;3.20;86.00
13992;DHT22;7070;53.586;9.692;2022-11-20T01:19:32;3.30;86.00
13992;DHT22;7070;53.586;9.692;2022-11-20T01:21:59;3.10;85.90
13992;DHT22;7070;53.586;9.692;2022-11-20T01:24:26;3.20;85.80
13992;DHT22;7070;53.586;9.692;2022-11-20T01:26:54;3.20;85.80
13992;DHT22;7070;53.586;9.692;2022-11-20T01:29:22;3.20;85.80
13992;DHT22;7070;53.586;9.692;2022-11-20T01:31:49;3.30;85.90
13992;DHT22;7070;53.586;9.692;2022-11-20T01:34:19;3.20;85.80
13992;DHT22;7070;53.586;9.692;2022-11-20T01:36:49;3.20;85.80
13992;DHT22;7070;53.586;9.692;2022-11-20T01:39:18;3.10;85.70
13992;DHT22;7070;53.586;9.692;2022-11-20T01:41:45;3.10;85.60
13992;DHT22;7070;53.586;9.692;2022-11-20T01:44:52;3.20;85.80
13992;DHT22;7070;53.586;9.692;2022-11-20T01:47:27;3.10;85.70
13992;DHT22;7070;53.586;9.692;2022-11-20T01:49:58;3.10;85.70
13992;DHT22;7070;53.586;9.692;2022-11-20T01:52:32;3.20;85.80
13992;DHT22;7070;53.586;9.692;2022-11-20T01:55:04;3.20;85.80
13992;DHT22;7070;53.586;9.692;2022-11-20T01:57:34;3.10;85.70
13992;DHT22;7070;53.586;9.692;2022-11-20T02:00:06;3.30;85.90
13992;DHT22;7070;53.586;9.692;2022-11-20T02:02:34;3.10;85.80
13992;DHT22;7070;53.586;9.692;2022-11-20T02:05:07;3.20;85.70
13992;DHT22;7070;53.586;9.692;2022-11-20T02:07:36;3.20;85.80
13992;DHT22;7070;53.586;9.692;2022-11-20T02:10:03;3.10;85.80
13992;DHT22;7070;53.586;9.692;2022-11-20T02:12:30;3.10;85.70
13992;DHT22;7070;53.586;9.692;2022-11-20T02:15:16;3.10;85.70
13992;DHT22;7070;53.586;9.692;2022-11-20T02:17:43;3.10;85.80
13992;DHT22;7070;53.586;9.692;2022-11-20T02:20:11;3.20;85.90
13992;DHT22;7070;53.586;9.692;2022-11-20T02:22:43;3.20;85.80
13992;DHT22;7070;53.586;9.692;2022-11-20T02:25:15;3.20;85.70
13992;DHT22;7070;53.586;9.692;2022-11-20T02:27:43;3.30;86.50
13992;DHT22;7070;53.586;9.692;2022-11-20T02:30:10;3.20;85.60
13992;DHT22;7070;53.586;9.692;2022-11-20T02:32:39;3.20;85.70
13992;DHT22;7070;53.586;9.692;2022-11-20T02:35:07;3.20;85.60
13992;DHT22;7070;53.586;9.692;2022-11-20T02:37:36;3.20;85.60
13992;DHT22;7070;53.586;9.692;2022-11-20T02:40:04;3.20;85.60
13992;DHT22;7070;53.586;9.692;2022-11-20T02:42:33;3.20;85.60
13992;DHT22;7070;53.586;9.692;2022-11-20T02:44:59;3.20;85.50
13992;DHT22;7070;53.586;9.692;2022-11-20T02:47:26;3.20;85.50
13992;DHT22;7070;53.586;9.692;2022-11-20T02:49:53;3.20;86.20
13992;DHT22;7070;53.586;9.692;2022-11-20T02:52:20;3.10;85.30
13992;DHT22;7070;53.586;9.692;2022-11-20T02:54:47;3.10;85.30
13992;DHT22;7070;53.586;9.692;2022-11-20T02:57:14;3.20;85.40
13992;DHT22;7070;53.586;9.692;2022-11-20T02:59:42;3.20;85.40
13992;DHT22;7070;53.586;9.692;2022-11-20T03:02:09;3.10;85.30
13992;DHT22;7070;53.586;9.692;2022-11-20T03:04:36;3.20;85.40
13992;DHT22;7070;53.586;9.692;2022-11-20T03:07:03;3.10;85.30
13992;DHT22;7070;53.586;9.692;2022-11-20T03:09:30;3.10;85.40
13992;DHT22;7070;53.586;9.692;2022-11-20T03:11:57;3.10;85.40
13992;DHT22;7070;53.586;9.692;2022-11-20T03:14:24;3.10;85.30
13992;DHT22;7070;53.586;9.692;2022-11-20T03:16:52;3.10;85.40
13992;DHT22;7070;53.586;9.692;2022-11-20T03:19:19;3.00;85.40
13992;DHT22;7070;53.586;9.692;2022-11-20T03:21:46;3.10;85.50
13992;DHT22;7070;53.586;9.692;2022-11-20T03:24:13;3.10;85.40
13992;DHT22;7070;53.586;9.692;2022-11-20T03:26:40;3.10;85.40
13992;DHT22;7070;53.586;9.692;2022-11-20T03:29:07;3.10;85.50
13992;DHT22;7070;53.586;9.692;2022-11-20T03:31:36;3.10;85.40
13992;DHT22;7070;53.586;9.692;2022-11-20T03:34:04;3.00;86.00
13992;DHT22;7070;53.586;9.692;2022-11-20T03:36:31;3.00;86.10
13992;DHT22;7070;53.586;9.692;2022-11-20T03:38:59;3.10;85.50
13992;DHT22;7070;53.586;9.692;2022-11-20T03:41:27;3.00;85.40
13992;DHT22;7070;53.586;9.692;2022-11-20T03:43:56;3.10;85.40
13992;DHT22;7070;53.586;9.692;2022-11-20T03:46:25;3.00;85.40
13992;DHT22;7070;53.586;9.692;2022-11-20T03:48:52;3.00;86.20
13992;DHT22;7070;53.586;9.692;2022-11-20T03:51:23;3.00;85.50
13992;DHT22;7070;53.586;9.692;2022-11-20T03:53:52;3.00;85.50
13992;DHT22;7070;53.586;9.692;2022-11-20T03:56:22;3.10;85.50
13992;DHT22;7070;53.586;9.692;2022-11-20T03:58:50;2.90;85.30
13992;DHT22;7070;53.586;9.692;2022-11-20T04:01:18;3.00;85.50
13992;DHT22;7070;53.586;9.692;2022-11-20T04:03:46;3.00;85.50
13992;DHT22;7070;53.586;9.692;2022-11-20T04:06:14;2.90;85.40
13992;DHT22;7070;53.586;9.692;2022-11-20T04:08:43;3.00;85.50
13992;DHT22;7070;53.586;9.692;2022-11-20T04:11:12;2.90;85.40
13992;DHT22;7070;53.586;9.692;2022-11-20T04:13:40;2.90;85.40
13992;DHT22;7070;53.586;9.692;2022-11-20T04:16:08;2.90;85.40
13992;DHT22;7070;53.586;9.692;2022-11-20T04:18:35;2.90;85.40
13992;DHT22;7070;53.586;9.692;2022-11-20T04:21:03;2.90;85.30
13992;DHT22;7070;53.586;9.692;2022-11-20T04:23:30;2.90;85.30
13992;DHT22;7070;53.586;9.692;2022-11-20T04:26:03;2.80;85.30
13992;DHT22;7070;53.586;9.692;2022-11-20T04:28:30;2.80;85.30
13992;DHT22;7070;53.586;9.692;2022-11-20T04:31:09;2.80;85.30
13992;DHT22;7070;53.586;9.692;2022-11-20T04:33:37;2.80;85.30
13992;DHT22;7070;53.586;9.692;2022-11-20T04:36:06;2.80;85.40
13992;DHT22;7070;53.586;9.692;2022-11-20T04:38:33;2.70;85.30
13992;DHT22;7070;53.586;9.692;2022-11-20T04:41:03;2.70;85.30
13992;DHT22;7070;53.586;9.692;2022-11-20T04:43:31;2.70;86.00
13992;DHT22;7070;53.586;9.692;2022-11-20T04:45:58;2.70;85.30
13992;DHT22;7070;53.586;9.692;2022-11-20T04:48:26;2.60;85.20
13992;DHT22;7070;53.586;9.692;2022-11-20T04:50:54;2.60;85.30
13992;DHT22;7070;53.586;9.692;2022-11-20T04:53:22;2.60;86.10
13992;DHT22;7070;53.586;9.692;2022-11-20T04:55:49;2.60;85.40
13992;DHT22;7070;53.586;9.692;2022-11-20T04:58:17;2.60;85.40
13992;DHT22;7070;53.586;9.692;2022-11-20T05:00:44;2.50;85.40
13992;DHT22;7070;53.586;9.692;2022-11-20T05:03:11;2.60;85.60
13992;DHT22;7070;53.586;9.692;2022-11-20T05:05:38;2.50;85.40
13992;DHT22;7070;53.586;9.692;2022-11-20T05:08:04;2.50;85.40
13992;DHT22;7070;53.586;9.692;2022-11-20T05:10:31;2.50;86.00
13992;DHT22;7070;53.586;9.692;2022-11-20T05:12:58;2.50;85.30
13992;DHT22;7070;53.586;9.692;2022-11-20T05:15:26;2.50;85.20
13992;DHT22;7070;53.586;9.692;2022-11-20T05:17:53;2.40;85.00
13992;DHT22;7070;53.586;9.692;2022-11-20T05:20:20;2.40;85.70
13992;DHT22;7070;53.586;9.692;2022-11-20T05:22:47;2.30;84.80
13992;DHT22;7070;53.586;9.692;2022-11-20T05:25:14;2.30;84.70
13992;DHT22;7070;53.586;9.692;2022-11-20T05:27:41;2.20;84.60
13992;DHT22;7070;53.586;9.692;2022-11-20T05:30:09;2.10;84.70
13992;DHT22;7070;53.586;9.692;2022-11-20T05:32:37;2.10;84.70
13992;DHT22;7070;53.586;9.692;2022-11-20T05:35:05;2.00;84.60
13992;DHT22;7070;53.586;9.692;2022-11-20T05:37:32;2.00;84.70
13992;DHT22;7070;53.586;9.692;2022-11-20T05:39:59;1.90;84.60
13992;DHT22;7070;53.586;9.692;2022-11-20T05:42:26;1.90;84.50
13992;DHT22;7070;53.586;9.692;2022-11-20T05:44:59;1.80;84.50
13992;DHT22;7070;53.586;9.692;2022-11-20T05:47:28;1.70;85.30
13992;DHT22;7070;53.586;9.692;2022-11-20T05:49:56;1.70;84.60
13992;DHT22;7070;53.586;9.692;2022-11-20T05:52:23;1.60;84.50
13992;DHT22;7070;53.586;9.692;2022-11-20T05:54:50;1.60;84.60
13992;DHT22;7070;53.586;9.692;2022-11-20T05:57:17;1.50;84.70
13992;DHT22;7070;53.586;9.692;2022-11-20T05:59:43;1.60;84.90
13992;DHT22;7070;53.586;9.692;2022-11-20T06:02:10;1.60;85.20
13992;DHT22;7070;53.586;9.692;2022-11-20T06:04:37;1.60;85.20
13992;DHT22;7070;53.586;9.692;2022-11-20T06:07:06;1.60;85.30
13992;DHT22;7070;53.586;9.692;2022-11-20T06:09:33;1.60;85.40
13992;DHT22;7070;53.586;9.692;2022-11-20T06:12:00;1.60;86.10
13992;DHT22;7070;53.586;9.692;2022-11-20T06:14:27;1.60;85.50
13992;DHT22;7070;53.586;9.692;2022-11-20T06:16:54;1.60;85.60
13992;DHT22;7070;53.586;9.692;2022-11-20T06:19:21;1.60;85.70
13992;DHT22;7070;53.586;9.692;2022-11-20T06:21:48;1.70;85.80
13992;DHT22;7070;53.586;9.692;2022-11-20T06:24:17;1.80;86.00
13992;DHT22;7070;53.586;9.692;2022-11-20T06:26:44;1.70;85.80
13992;DHT22;7070;53.586;9.692;2022-11-20T06:29:11;1.70;85.80
13992;DHT22;7070;53.586;9.692;2022-11-20T06:31:38;1.80;86.00
13992;DHT22;7070;53.586;9.692;2022-11-20T06:34:05;1.90;86.10
13992;DHT22;7070;53.586;9.692;2022-11-20T06:36:33;1.90;86.10
13992;DHT22;7070;53.586;9.692;2022-11-20T06:39:00;1.90;86.20
13992;DHT22;7070;53.586;9.692;2022-11-20T06:41:28;1.90;86.10
13992;DHT22;7070;53.586;9.692;2022-11-20T06:43:55;1.90;86.20
13992;DHT22;7070;53.586;9.692;2022-11-20T06:46:22;2.00;86.20
13992;DHT22;7070;53.586;9.692;2022-11-20T06:48:49;2.00;86.10
13992;DHT22;7070;53.586;9.692;2022-11-20T06:51:17;2.10;86.10
13992;DHT22;7070;53.586;9.692;2022-11-20T06:53:44;2.10;86.10
13992;DHT22;7070;53.586;9.692;2022-11-20T06:56:11;2.10;85.90
13992;DHT22;7070;53.586;9.692;2022-11-20T06:58:39;2.10;85.90
13992;DHT22;7070;53.586;9.692;2022-11-20T07:01:09;2.10;85.80
13992;DHT22;7070;53.586;9.692;2022-11-20T07:03:36;2.10;85.50
13992;DHT22;7070;53.586;9.692;2022-11-20T07:06:04;2.00;85.30
13992;DHT22;7070;53.586;9.692;2022-11-20T07:08:31;2.00;85.20
13992;DHT22;7070;53.586;9.692;2022-11-20T07:10:59;1.90;85.20
13992;DHT22;7070;53.586;9.692;2022-11-20T07:13:27;2.00;85.30
13992;DHT22;7070;53.586;9.692;2022-11-20T07:15:59;1.90;85.30
13992;DHT22;7070;53.586;9.692;2022-11-20T07:18:26;1.90;85.40
13992;DHT22;7070;53.586;9.692;2022-11-20T07:20:53;1.90;85.50
13992;DHT22;7070;53.586;9.692;2022-11-20T07:23:20;1.90;85.60
13992;DHT22;7070;53.586;9.692;2022-11-20T07:25:47;1.90;85.50
13992;DHT22;7070;53.586;9.692;2022-11-20T07:28:14;1.80;85.40
13992;DHT22;7070;53.586;9.692;2022-11-20T07:30:40;1.90;85.50
13992;DHT22;7070;53.586;9.692;2022-11-20T07:33:09;1.80;85.60
13992;DHT22;7070;53.586;9.692;2022-11-20T07:35:36;1.80;85.60
13992;DHT22;7070;53.586;9.692;2022-11-20T07:38:02;1.90;85.70
13992;DHT22;7070;53.586;9.692;2022-11-20T07:40:29;1.90;85.70
13992;DHT22;7070;53.586;9.692;2022-11-20T07:42:56;1.90;85.80
13992;DHT22;7070;53.586;9.692;2022-11-20T07:45:24;1.90;85.80
13992;DHT22;7070;53.586;9.692;2022-11-20T07:47:51;2.00;86.00
13992;DHT22;7070;53.586;9.692;2022-11-20T07:50:19;1.90;86.00
13992;DHT22;7070;53.586;9.692;2022-11-20T07:52:47;2.00;86.10
13992;DHT22;7070;53.586;9.692;2022-11-20T07:55:14;2.00;86.20
13992;DHT22;7070;53.586;9.692;2022-11-20T07:57:41;2.10;86.40
13992;DHT22;7070;53.586;9.692;2022-11-20T08:00:10;2.20;86.70
13992;DHT22;7070;53.586;9.692;2022-11-20T08:02:37;2.20;86.70
13992;DHT22;7070;53.586;9.692;2022-11-20T08:05:06;2.30;86.90
13992;DHT22;7070;53.586;9.692;2022-11-20T08:07:37;2.40;87.10
13992;DHT22;7070;53.586;9.692;2022-11-20T08:10:05;2.40;87.10
13992;DHT22;7070;53.586;9.692;2022-11-20T08:12:32;2.50;87.20
13992;DHT22;7070;53.586;9.692;2022-11-20T08:15:16;2.70;87.30
13992;DHT22;7070;53.586;9.692;2022-11-20T08:17:43;2.70;87.40
13992;DHT22;7070;53.586;9.692;2022-11-20T08:20:10;2.80;87.50
13992;DHT22;7070;53.586;9.692;2022-11-20T08:22:39;2.90;87.50
13992;DHT22;7070;53.586;9.692;2022-11-20T08:25:07;2.90;87.40
13992;DHT22;7070;53.586;9.692;2022-11-20T08:27:34;3.00;87.40
13992;DHT22;7070;53.586;9.692;2022-11-20T08:30:01;3.10;87.30
13992;DHT22;7070;53.586;9.692;2022-11-20T08:32:27;3.20;87.50
13992;DHT22;7070;53.586;9.692;2022-11-20T08:34:54;3.20;87.40
13992;DHT22;7070;53.586;9.692;2022-11-20T08:37:21;3.30;87.30
13992;DHT22;7070;53.586;9.692;2022-11-20T08:39:49;3.30;87.30
13992;DHT22;7070;53.586;9.692;2022-11-20T08:42:18;3.30;87.20
13992;DHT22;7070;53.586;9.692;2022-11-20T08:44:44;3.40;87.20
13992;DHT22;7070;53.586;9.692;2022-11-20T08:47:11;3.40;87.30
13992;DHT22;7070;53.586;9.692;2022-11-20T08:49:38;3.50;87.20
13992;DHT22;7070;53.586;9.692;2022-11-20T08:52:09;3.50;87.20
13992;DHT22;7070;53.586;9.692;2022-11-20T08:54:36;3.50;86.60
13992;DHT22;7070;53.586;9.692;2022-11-20T08:57:04;3.50;86.30
13992;DHT22;7070;53.586;9.692;2022-11-20T08:59:31;3.40;86.00
13992;DHT22;7070;53.586;9.692;2022-11-20T09:01:58;3.40;85.70
13992;DHT22;7070;53.586;9.692;2022-11-20T09:04:25;3.40;85.50
13992;DHT22;7070;53.586;9.692;2022-11-20T09:06:51;3.30;85.20
13992;DHT22;7070;53.586;9.692;2022-11-20T09:09:18;4.50;86.30
13992;DHT22;7070;53.586;9.692;2022-11-20T09:11:45;3.10;85.20
13992;DHT22;7070;53.586;9.692;2022-11-20T09:14:14;3.10;85.50
13992;DHT22;7070;53.586;9.692;2022-11-20T09:16:40;3.00;85.70
13992;DHT22;7070;53.586;9.692;2022-11-20T09:19:07;3.00;85.90
13992;DHT22;7070;53.586;9.692;2022-11-20T09:21:35;3.00;85.90
13992;DHT22;7070;53.586;9.692;2022-11-20T09:24:02;3.00;86.00
13992;DHT22;7070;53.586;9.692;2022-11-20T09:26:28;3.00;85.90
13992;DHT22;7070;53.586;9.692;2022-11-20T09:28:55;3.00;85.90
13992;DHT22;7070;53.586;9.692;2022-11-20T09:31:25;3.00;85.80
13992;DHT22;7070;53.586;9.692;2022-11-20T09:33:52;2.90;85.80
13992;DHT22;7070;53.586;9.692;2022-11-20T09:36:19;3.00;86.10
13992;DHT22;7070;53.586;9.692;2022-11-20T09:38:46;3.00;86.40
13992;DHT22;7070;53.586;9.692;2022-11-20T09:41:29;3.10;86.80
13992;DHT22;7070;53.586;9.692;2022-11-20T09:44:02;3.20;87.00
13992;DHT22;7070;53.586;9.692;2022-11-20T09:46:40;3.40;87.10
13992;DHT22;7070;53.586;9.692;2022-11-20T09:49:23;3.50;87.20
13992;DHT22;7070;53.586;9.692;2022-11-20T09:51:57;3.50;87.10
13992;DHT22;7070;53.586;9.692;2022-11-20T09:54:29;3.60;87.00
13992;DHT22;7070;53.586;9.692;2022-11-20T09:57:00;3.60;86.80
13992;DHT22;7070;53.586;9.692;2022-11-20T09:59:35;3.60;86.60
13992;DHT22;7070;53.586;9.692;2022-11-20T10:02:16;3.70;86.70
13992;DHT22;7070;53.586;9.692;2022-11-20T10:04:47;3.70;86.50
13992;DHT22;7070;53.586;9.692;2022-11-20T10:07:20;3.70;86.40
13992;DHT22;7070;53.586;9.692;2022-11-20T10:09:52;3.70;86.20
13992;DHT22;7070;53.586;9.692;2022-11-20T10:12:27;3.80;86.30
13992;DHT22;7070;53.586;9.692;2022-11-20T10:15:10;3.70;86.30
13992;DHT22;7070;53.586;9.692;2022-11-20T10:17:53;3.80;87.20
13992;DHT22;7070;53.586;9.692;2022-11-20T10:20:29;3.80;86.60
13992;DHT22;7070;53.586;9.692;2022-11-20T10:23:13;3.90;86.70
13992;DHT22;7070;53.586;9.692;2022-11-20T10:25:46;3.90;86.70
13992;DHT22;7070;53.586;9.692;2022-11-20T10:28:29;3.80;86.40
13992;DHT22;7070;53.586;9.692;2022-11-20T10:31:00;3.90;86.40
13992;DHT22;7070;53.586;9.692;2022-11-20T10:33:34;3.90;86.50
13992;DHT22;7070;53.586;9.692;2022-11-20T10:36:09;3.90;86.40
13992;DHT22;7070;53.586;9.692;2022-11-20T10:38:42;4.00;86.50
13992;DHT22;7070;53.586;9.692;2022-11-20T10:41:16;3.90;86.50
13992;DHT22;7070;53.586;9.692;2022-11-20T10:44:00;3.90;86.60
13992;DHT22;7070;53.586;9.692;2022-11-20T10:46:35;4.00;86.90
13992;DHT22;7070;53.586;9.692;2022-11-20T10:49:11;4.10;87.20
13992;DHT22;7070;53.586;9.692;2022-11-20T10:51:47;4.20;87.70
13992;DHT22;7070;53.586;9.692;2022-11-20T10:54:21;4.30;87.80
13992;DHT22;7070;53.586;9.692;2022-11-20T10:56:51;4.40;87.50
13992;DHT22;7070;53.586;9.692;2022-11-20T11:02:23;4.50;86.90
13992;DHT22;7070;53.586;9.692;2022-11-20T11:04:53;4.60;87.20
13992;DHT22;7070;53.586;9.692;2022-11-20T11:07:23;4.60;87.50
13992;DHT22;7070;53.586;9.692;2022-11-20T11:09:53;4.70;88.00
13992;DHT22;7070;53.586;9.692;2022-11-20T11:12:21;4.90;88.20
13992;DHT22;7070;53.586;9.692;2022-11-20T11:14:49;5.00;88.40
13992;DHT22;7070;53.586;9.692;2022-11-20T11:17:28;5.20;88.00
13992;DHT22;7070;53.586;9.692;2022-11-20T11:20:06;5.20;87.30
13992;DHT22;7070;53.586;9.692;2022-11-20T11:22:44;5.30;86.60
13992;DHT22;7070;53.586;9.692;2022-11-20T11:25:21;5.10;86.00
13992;DHT22;7070;53.586;9.692;2022-11-20T11:27:49;5.00;85.50
13992;DHT22;7070;53.586;9.692;2022-11-20T11:30:18;5.00;85.50
13992;DHT22;7070;53.586;9.692;2022-11-20T11:32:46;4.90;85.60
13992;DHT22;7070;53.586;9.692;2022-11-20T11:35:23;4.80;85.90
13992;DHT22;7070;53.586;9.692;2022-11-20T11:37:51;4.80;86.00
13992;DHT22;7070;53.586;9.692;2022-11-20T11:40:20;4.80;85.90
13992;DHT22;7070;53.586;9.692;2022-11-20T11:42:52;4.70;85.60
13992;DHT22;7070;53.586;9.692;2022-11-20T11:45:21;4.70;85.50
13992;DHT22;7070;53.586;9.692;2022-11-20T11:47:48;4.60;85.10
13992;DHT22;7070;53.586;9.692;2022-11-20T11:50:22;4.50;85.10
13992;DHT22;7070;53.586;9.692;2022-11-20T11:53:03;4.40;85.20
13992;DHT22;7070;53.586;9.692;2022-11-20T11:55:36;4.30;85.20
13992;DHT22;7070;53.586;9.692;2022-11-20T11:58:14;4.30;85.70
13992;DHT22;7070;53.586;9.692;2022-11-20T12:00:50;4.40;86.10
13992;DHT22;7070;53.586;9.692;2022-11-20T12:03:21;4.40;86.40
13992;DHT22;7070;53.586;9.692;2022-11-20T12:05:57;4.40;86.80
13992;DHT22;7070;53.586;9.692;2022-11-20T12:08:28;4.50;86.90
13992;DHT22;7070;53.586;9.692;2022-11-20T12:11:00;4.60;86.90
13992;DHT22;7070;53.586;9.692;2022-11-20T12:13:40;4.70;86.90
13992;DHT22;7070;53.586;9.692;2022-11-20T12:16:10;4.80;86.80
13992;DHT22;7070;53.586;9.692;2022-11-20T12:18:38;4.90;87.40
13992;DHT22;7070;53.586;9.692;2022-11-20T12:21:17;4.90;86.30
13992;DHT22;7070;53.586;9.692;2022-11-20T12:23:53;5.00;86.00
13992;DHT22;7070;53.586;9.692;2022-11-20T12:26:34;5.10;85.50
13992;DHT22;7070;53.586;9.692;2022-11-20T12:29:10;5.00;84.70
13992;DHT22;7070;53.586;9.692;2022-11-20T12:31:54;4.90;84.10
13992;DHT22;7070;53.586;9.692;2022-11-20T12:34:39;4.80;83.80
13992;DHT22;7070;53.586;9.692;2022-11-20T12:37:15;4.70;83.60
13992;DHT22;7070;53.586;9.692;2022-11-20T12:39:48;4.60;83.40
13992;DHT22;7070;53.586;9.692;2022-11-20T12:42:31;4.40;83.60
13992;DHT22;7070;53.586;9.692;2022-11-20T12:48:38;4.50;84.80
13992;DHT22;7070;53.586;9.692;2022-11-20T12:51:39;4.50;85.20
13992;DHT22;7070;53.586;9.692;2022-11-20T12:57:21;4.80;84.70
13992;DHT22;7070;53.586;9.692;2022-11-20T13:00:03;4.80;84.20
13992;DHT22;7070;53.586;9.692;2022-11-20T13:02:41;4.80;84.50
13992;DHT22;7070;53.586;9.692;2022-11-20T13:05:21;4.80;83.60
13992;DHT22;7070;53.586;9.692;2022-11-20T13:07:53;4.80;83.50
13992;DHT22;7070;53.586;9.692;2022-11-20T13:10:26;4.70;83.40
13992;DHT22;7070;53.586;9.692;2022-11-20T13:13:03;4.70;83.50
13992;DHT22;7070;53.586;9.692;2022-11-20T13:15:39;4.70;83.60
13992;DHT22;7070;53.586;9.692;2022-11-20T13:18:11;4.60;83.40
13992;DHT22;7070;53.586;9.692;2022-11-20T13:20:42;4.60;83.60
13992;DHT22;7070;53.586;9.692;2022-11-20T13:23:09;4.60;83.70
13992;DHT22;7070;53.586;9.692;2022-11-20T13:25:38;4.60;83.90
13992;DHT22;7070;53.586;9.692;2022-11-20T13:28:28;4.60;83.90
13992;DHT22;7070;53.586;9.692;2022-11-20T13:30:56;4.60;84.20
13992;DHT22;7070;53.586;9.692;2022-11-20T13:33:28;4.70;84.50
13992;DHT22;7070;53.586;9.692;2022-11-20T13:35:58;4.70;84.90
13992;DHT22;7070;53.586;9.692;2022-11-20T13:38:25;4.80;85.40
13992;DHT22;7070;53.586;9.692;2022-11-20T13:40:54;5.00;85.80
13992;DHT22;7070;53.586;9.692;2022-11-20T13:43:28;5.20;86.20
13992;DHT22;7070;53.586;9.692;2022-11-20T13:45:58;5.40;86.20
13992;DHT22;7070;53.586;9.692;2022-11-20T13:48:28;5.50;86.40
13992;DHT22;7070;53.586;9.692;2022-11-20T13:51:12;5.70;86.40
13992;DHT22;7070;53.586;9.692;2022-11-20T13:53:53;5.80;86.50
13992;DHT22;7070;53.586;9.692;2022-11-20T13:56:27;6.00;86.40
13992;DHT22;7070;53.586;9.692;2022-11-20T13:59:06;6.10;86.40
13992;DHT22;7070;53.586;9.692;2022-11-20T14:01:35;6.20;86.40
13992;DHT22;7070;53.586;9.692;2022-11-20T14:04:06;6.30;86.40
13992;DHT22;7070;53.586;9.692;2022-11-20T14:06:41;6.40;86.30
13992;DHT22;7070;53.586;9.692;2022-11-20T14:09:11;6.50;86.20
13992;DHT22;7070;53.586;9.692;2022-11-20T14:11:46;6.60;86.20
13992;DHT22;7070;53.586;9.692;2022-11-20T14:14:16;6.60;86.10
13992;DHT22;7070;53.586;9.692;2022-11-20T14:16:45;6.70;86.10
13992;DHT22;7070;53.586;9.692;2022-11-20T14:19:29;6.80;86.00
13992;DHT22;7070;53.586;9.692;2022-11-20T14:22:18;6.70;85.80
13992;DHT22;7070;53.586;9.692;2022-11-20T14:24:45;6.70;85.60
13992;DHT22;7070;53.586;9.692;2022-11-20T14:27:14;6.70;85.60
13992;DHT22;7070;53.586;9.692;2022-11-20T14:29:44;6.70;85.50
13992;DHT22;7070;53.586;9.692;2022-11-20T14:32:15;6.60;85.20
13992;DHT22;7070;53.586;9.692;2022-11-20T14:34:45;6.60;84.90
13992;DHT22;7070;53.586;9.692;2022-11-20T14:37:16;6.50;84.60
13992;DHT22;7070;53.586;9.692;2022-11-20T14:39:49;6.40;84.70
13992;DHT22;7070;53.586;9.692;2022-11-20T14:42:17;6.10;84.50
13992;DHT22;7070;53.586;9.692;2022-11-20T14:44:46;6.00;84.60
13992;DHT22;7070;53.586;9.692;2022-11-20T14:47:18;6.00;85.50
13992;DHT22;7070;53.586;9.692;2022-11-20T14:49:46;5.90;84.80
13992;DHT22;7070;53.586;9.692;2022-11-20T14:52:15;5.80;84.90
13992;DHT22;7070;53.586;9.692;2022-11-20T14:54:51;5.80;85.00
13992;DHT22;7070;53.586;9.692;2022-11-20T14:57:24;5.70;85.00
13992;DHT22;7070;53.586;9.692;2022-11-20T15:00:21;5.60;84.90
13992;DHT22;7070;53.586;9.692;2022-11-20T15:02:52;5.60;84.90
13992;DHT22;7070;53.586;9.692;2022-11-20T15:05:24;5.60;85.10
13992;DHT22;7070;53.586;9.692;2022-11-20T15:08:03;5.50;85.10
13992;DHT22;7070;53.586;9.692;2022-11-20T15:10:31;5.50;85.00
13992;DHT22;7070;53.586;9.692;2022-11-20T15:13:01;5.40;85.00
13992;DHT22;7070;53.586;9.692;2022-11-20T15:15:32;5.40;85.00
13992;DHT22;7070;53.586;9.692;2022-11-20T15:18:00;5.30;84.80
13992;DHT22;7070;53.586;9.692;2022-11-20T15:20:29;5.30;84.90
13992;DHT22;7070;53.586;9.692;2022-11-20T15:22:57;5.20;84.70
13992;DHT22;7070;53.586;9.692;2022-11-20T15:25:24;5.20;84.90
13992;DHT22;7070;53.586;9.692;2022-11-20T15:27:54;5.20;84.70
13992;DHT22;7070;53.586;9.692;2022-11-20T15:30:22;5.20;84.70
13992;DHT22;7070;53.586;9.692;2022-11-20T15:32:50;5.20;84.80
13992;DHT22;7070;53.586;9.692;2022-11-20T15:35:17;5.10;84.70
13992;DHT22;7070;53.586;9.692;2022-11-20T15:37:44;5.10;84.70
13992;DHT22;7070;53.586;9.692;2022-11-20T15:40:11;5.10;84.70
13992;DHT22;7070;53.586;9.692;2022-11-20T15:42:41;5.00;84.80
13992;DHT22;7070;53.586;9.692;2022-11-20T15:45:29;5.00;84.80
13992;DHT22;7070;53.586;9.692;2022-11-20T15:47:59;4.90;84.70
13992;DHT22;7070;53.586;9.692;2022-11-20T15:50:32;4.90;84.90
13992;DHT22;7070;53.586;9.692;2022-11-20T15:53:03;4.80;84.90
13992;DHT22;7070;53.586;9.692;2022-11-20T15:55:30;4.90;85.00
13992;DHT22;7070;53.586;9.692;2022-11-20T15:57:57;4.80;84.90
13992;DHT22;7070;53.586;9.692;2022-11-20T16:00:24;4.80;85.00
13992;DHT22;7070;53.586;9.692;2022-11-20T16:02:51;4.80;85.00
13992;DHT22;7070;53.586;9.692;2022-11-20T16:05:22;4.80;85.00
13992;DHT22;7070;53.586;9.692;2022-11-20T16:07:50;4.70;84.80
13992;DHT22;7070;53.586;9.692;2022-11-20T16:10:17;4.70;84.60
13992;DHT22;7070;53.586;9.692;2022-11-20T16:12:44;4.50;84.60
13992;DHT22;7070;53.586;9.692;2022-11-20T16:15:29;4.50;84.60
13992;DHT22;7070;53.586;9.692;2022-11-20T16:18:16;4.50;84.80
13992;DHT22;7070;53.586;9.692;2022-11-20T16:20:45;4.60;85.00
13992;DHT22;7070;53.586;9.692;2022-11-20T16:23:13;4.40;84.80
13992;DHT22;7070;53.586;9.692;2022-11-20T16:25:41;4.40;84.90
13992;DHT22;7070;53.586;9.692;2022-11-20T16:28:08;4.30;84.90
13992;DHT22;7070;53.586;9.692;2022-11-20T16:30:35;4.30;84.90